Terminal Aerodrome Forecast
Issued by NWS Charleston, SC

Current Version | Previous Version | Text Only | Print | Product List | Glossary Off
Versions: 1 2 3 4 5 6 7 8 9 10 11

000
FTUS42 KCHS 130522
TAFCHS
TAF
KCHS 130522Z 1306/1406 32010KT P6SM SKC
     FM131000 31007KT P6SM SKC
     FM131900 24006KT P6SM SKC=

USA.gov is the U.S. government's official web portal to all federal, state and local government web resources and services.